CheckWX is a tool to help pilots better visualize weather data.  It is not intended as a substitute for an official pre-flight weather briefing.

02:43:21 UTC

KISP TAF
Long Island Mac Arthur Airport
New York, New York, USA
KISP 020218Z 0202/0224 VRB04KT P6SM SCT070 FM020400 34005KT P6SM FEW070 FM021000 32010KT P6SM SKC FM021300 33017G25KT P6SM FEW050 FEW250 FM021900 33020G28KT P6SM BKN050

Apr-2@
02:00 UTC

Apr-2 @ 02:00 UTC

Apr-2@
04:00 UTC

Apr-2 @ 04:00 UTC

TAF KISP 020218Z 0202/0224 VRB04KT P6SM SCT070
Wind
  • Variable at 4 KTS
Cloud Levels
  • Scattered at 7,000' AGL

Apr-2@
04:00 UTC

Apr-2 @ 04:00 UTC

Apr-2@
10:00 UTC

Apr-2 @ 10:00 UTC

FM020400 34005KT P6SM FEW070

From

From Standard forecast or significant change

Wind
  • 340° at 5 KTS
Cloud Levels
  • Few at 7,000' AGL

Apr-2@
10:00 UTC

Apr-2 @ 10:00 UTC

Apr-2@
13:00 UTC

Apr-2 @ 13:00 UTC

FM021000 32010KT P6SM SKC

From

From Standard forecast or significant change

Wind
  • 320° at 10 KTS
Cloud Levels
  • Clear skies

Apr-2@
13:00 UTC

Apr-2 @ 13:00 UTC

Apr-2@
19:00 UTC

Apr-2 @ 19:00 UTC

FM021300 33017G25KT P6SM FEW050 FEW250

From

From Standard forecast or significant change

Wind
  • 330° at 17 KTS
  • {Gusting to 25 KTS
Cloud Levels
  • Few at 5,000' AGL
  • Few at 25,000' AGL

Apr-2@
19:00 UTC

Apr-2 @ 19:00 UTC

Apr-3@
00:00 UTC

Apr-3 @ 00:00 UTC

FM021900 33020G28KT P6SM BKN050

From

From Standard forecast or significant change

Wind
  • 330° at 20 KTS
  • {Gusting to 28 KTS
Cloud Levels
  • Broken at 5,000' AGL